Terminal Aerodrome Forecast
Issued by NWS

Home | Current Version | Previous Version | Text Only | Print | Product List | Glossary On
Versions: 1 2 3 4 5 6 7 8 9 10 11 12 13 14 15 16 17 18 19 20 21 22 23 24 25 26
000
FTUS41 KPBZ 071939 AAA
TAFFKL
TAF AMD
KFKL 071939Z 0720/0818 28010G20KT P6SM VCTS OVC035CB
      TEMPO 0801/0803 2SM TSRA OVC020CB
     FM080500 25006KT 3SM BR VCSH OVC004
     FM081600 03007KT 6SM BR OVC010
      AMD LTD TO CLD VIS AND WIND=

USA.gov is the U.S. government's official web portal to all federal, state and local government web resources and services.